createdAt,value
2023-05-12T00:00:18.467Z,9.38
2023-05-12T00:02:23.132Z,9.37
2023-05-12T00:04:26.548Z,9.32
2023-05-12T00:06:29.849Z,9.29
2023-05-12T00:08:32.246Z,9.29
2023-05-12T00:10:36.966Z,9.34
2023-05-12T00:12:40.230Z,9.35
2023-05-12T00:14:43.757Z,9.39
2023-05-12T00:16:51.324Z,9.40
2023-05-12T00:18:55.071Z,9.40
2023-05-12T00:20:58.867Z,9.40
2023-05-12T00:23:02.232Z,9.40
2023-05-12T00:25:06.339Z,9.40
2023-05-12T00:27:11.109Z,9.39
2023-05-12T00:29:15.190Z,9.40
2023-05-12T00:31:18.513Z,9.41
2023-05-12T00:33:21.830Z,9.40
2023-05-12T00:35:25.354Z,9.39
2023-05-12T00:37:28.759Z,9.41
2023-05-12T00:39:32.043Z,9.39
2023-05-12T00:41:35.491Z,9.38
2023-05-12T00:43:40.179Z,9.37
2023-05-12T00:45:43.686Z,9.38
2023-05-12T00:47:47.539Z,9.35
2023-05-12T00:49:50.878Z,9.35
2023-05-12T00:51:55.931Z,9.35
2023-05-12T00:54:00.351Z,9.32
2023-05-12T00:56:03.764Z,9.33
2023-05-12T00:58:07.326Z,9.32
2023-05-12T01:00:14.158Z,9.31
2023-05-12T01:02:19.495Z,9.30
2023-05-12T01:04:23.434Z,9.28
2023-05-12T01:06:31.023Z,9.25
2023-05-12T01:08:36.250Z,9.23
2023-05-12T01:10:45.275Z,9.22
2023-05-12T01:12:50.981Z,9.21
2023-05-12T01:14:58.295Z,9.18
2023-05-12T01:17:08.983Z,9.14
2023-05-12T01:19:27.418Z,9.11
2023-05-12T01:21:31.874Z,9.07
2023-05-12T01:23:39.223Z,9.05
2023-05-12T01:25:44.516Z,9.04
2023-05-12T01:27:51.017Z,9.03
2023-05-12T01:29:55.940Z,9.02
2023-05-12T01:32:00.303Z,9.01
2023-05-12T01:34:03.699Z,8.99
2023-05-12T01:36:07.872Z,8.98
2023-05-12T01:38:11.814Z,8.98
2023-05-12T01:40:18.508Z,8.98
2023-05-12T01:42:22.038Z,8.90
2023-05-12T01:44:27.840Z,8.88
2023-05-12T01:46:31.463Z,8.88
2023-05-12T01:48:36.966Z,8.90
2023-05-12T01:50:42.524Z,8.88
2023-05-12T01:52:49.996Z,8.85
2023-05-12T01:54:54.838Z,8.83
2023-05-12T01:56:59.409Z,8.81
2023-05-12T01:59:02.747Z,8.79
2023-05-12T02:01:07.460Z,8.77
2023-05-12T02:03:10.888Z,8.76
2023-05-12T02:05:15.284Z,8.77
2023-05-12T02:07:21.713Z,8.77
2023-05-12T02:09:25.339Z,8.76
2023-05-12T02:11:32.388Z,8.72
2023-05-12T02:13:36.204Z,8.62
2023-05-12T02:15:40.062Z,8.62
2023-05-12T02:17:44.873Z,8.64
2023-05-12T02:19:49.116Z,8.68
2023-05-12T02:21:52.599Z,8.72
2023-05-12T02:23:58.010Z,8.68
2023-05-12T02:26:01.370Z,8.67
2023-05-12T02:28:04.916Z,8.67
2023-05-12T02:30:09.345Z,8.71
2023-05-12T02:32:13.013Z,8.71
2023-05-12T02:34:20.995Z,8.74
2023-05-12T02:36:24.405Z,8.76
2023-05-12T02:38:27.745Z,8.78
2023-05-12T02:40:30.991Z,8.79
2023-05-12T02:42:35.774Z,8.79
2023-05-12T02:44:39.030Z,8.80
2023-05-12T02:46:43.019Z,8.81
2023-05-12T02:48:46.425Z,8.78
2023-05-12T02:50:51.206Z,8.78
2023-05-12T02:52:54.538Z,8.78
2023-05-12T02:54:58.127Z,8.78
2023-05-12T02:57:06.136Z,8.79
2023-05-12T02:59:09.486Z,8.79
2023-05-12T03:01:12.865Z,8.78
2023-05-12T03:03:17.953Z,8.75
2023-05-12T03:05:21.825Z,8.62
2023-05-12T03:07:28.446Z,8.45
2023-05-12T03:09:31.671Z,8.32
2023-05-12T03:11:35.126Z,8.29
2023-05-12T03:13:38.480Z,8.27
2023-05-12T03:15:42.103Z,8.19
2023-05-12T03:17:45.844Z,8.21
2023-05-12T03:19:49.180Z,8.27
2023-05-12T03:21:54.029Z,8.33
2023-05-12T03:23:58.801Z,8.32
2023-05-12T03:26:02.648Z,8.29
2023-05-12T03:28:06.797Z,8.33
2023-05-12T03:30:12.047Z,8.36
2023-05-12T03:32:15.347Z,8.41
2023-05-12T03:34:18.659Z,8.44
2023-05-12T03:36:22.300Z,8.42
2023-05-12T03:38:25.706Z,8.44
2023-05-12T03:40:30.909Z,8.47
2023-05-12T03:42:34.276Z,8.49
2023-05-12T03:44:38.202Z,8.50
2023-05-12T03:46:41.822Z,8.51
2023-05-12T03:48:45.152Z,8.54
2023-05-12T03:50:48.467Z,8.55
2023-05-12T03:52:56.094Z,8.56
2023-05-12T03:54:59.450Z,8.57
2023-05-12T03:57:04.244Z,8.59
2023-05-12T03:59:07.492Z,8.60
2023-05-12T04:01:11.185Z,8.59
2023-05-12T04:03:14.565Z,8.58
2023-05-12T04:05:17.968Z,8.58
2023-05-12T04:07:21.220Z,8.58
2023-05-12T04:09:25.086Z,8.59
2023-05-12T04:11:28.943Z,8.59
2023-05-12T04:13:33.927Z,8.58
2023-05-12T04:15:37.583Z,8.58
2023-05-12T04:17:41.267Z,8.58
2023-05-12T04:19:45.092Z,8.58
2023-05-12T04:21:48.948Z,8.58
2023-05-12T04:23:53.966Z,8.58
2023-05-12T04:25:59.704Z,8.58
2023-05-12T04:28:03.335Z,8.58
2023-05-12T04:30:10.329Z,8.57
2023-05-12T04:32:16.347Z,8.55
2023-05-12T04:34:20.205Z,8.54
2023-05-12T04:36:23.935Z,8.55
2023-05-12T04:38:28.045Z,8.55
2023-05-12T04:40:34.256Z,8.53
2023-05-12T04:42:39.286Z,8.54
2023-05-12T04:44:46.261Z,8.53
2023-05-12T04:46:54.447Z,8.54
2023-05-12T04:48:57.928Z,8.54
2023-05-12T04:51:01.826Z,8.54
2023-05-12T04:53:05.800Z,8.57
2023-05-12T04:55:10.564Z,8.59
2023-05-12T04:57:14.631Z,8.62
2023-05-12T04:59:18.527Z,8.61
2023-05-12T05:01:24.232Z,8.64
2023-05-12T05:03:29.485Z,8.69
2023-05-12T05:05:33.193Z,8.73
2023-05-12T05:07:37.346Z,8.74
2023-05-12T05:09:41.436Z,8.78
2023-05-12T05:11:45.390Z,8.81
2023-05-12T05:13:49.383Z,8.88
2023-05-12T05:15:55.334Z,8.94
2023-05-12T05:18:01.862Z,9.06
2023-05-12T05:20:11.734Z,9.18
2023-05-12T05:22:16.217Z,9.28
2023-05-12T05:24:21.343Z,9.37
2023-05-12T05:26:25.305Z,9.41
2023-05-12T05:28:29.098Z,9.48
2023-05-12T05:30:33.259Z,9.57
2023-05-12T05:32:40.581Z,9.65
2023-05-12T05:34:44.650Z,9.74
2023-05-12T05:36:49.627Z,9.78
2023-05-12T05:38:52.953Z,9.76
2023-05-12T05:40:57.938Z,9.77
2023-05-12T05:43:02.976Z,9.80
2023-05-12T05:45:07.917Z,9.82
2023-05-12T05:47:11.497Z,9.83
2023-05-12T05:49:15.604Z,9.88
2023-05-12T05:51:19.692Z,9.92
2023-05-12T05:53:25.646Z,9.98
2023-05-12T05:55:30.106Z,10.05
2023-05-12T05:57:34.374Z,10.15
2023-05-12T05:59:38.674Z,10.29
2023-05-12T06:01:42.615Z,10.46
2023-05-12T06:03:46.973Z,10.62
2023-05-12T06:05:51.173Z,10.70
2023-05-12T06:07:55.015Z,10.72
2023-05-12T06:10:00.937Z,10.73
2023-05-12T06:12:04.718Z,10.77
2023-05-12T06:14:09.427Z,10.86
2023-05-12T06:16:13.303Z,10.98
2023-05-12T06:18:17.106Z,11.08
2023-05-12T06:20:21.180Z,11.16
2023-05-12T06:22:25.187Z,11.20
2023-05-12T06:24:29.682Z,11.22
2023-05-12T06:26:35.119Z,11.26
2023-05-12T06:28:39.000Z,11.53
2023-05-12T06:30:43.350Z,11.70
2023-05-12T06:32:47.385Z,11.71
2023-05-12T06:34:51.486Z,11.63
2023-05-12T06:36:55.419Z,11.51
2023-05-12T06:39:00.881Z,11.43
2023-05-12T06:41:04.541Z,11.37
2023-05-12T06:43:09.778Z,11.27
2023-05-12T06:45:14.550Z,11.21
2023-05-12T06:47:18.603Z,11.15
2023-05-12T06:49:23.427Z,11.14
2023-05-12T06:51:27.943Z,11.12
2023-05-12T06:53:32.951Z,11.12
2023-05-12T06:55:36.653Z,11.11
2023-05-12T06:57:40.121Z,11.07
2023-05-12T06:59:45.619Z,11.04
2023-05-12T07:01:49.780Z,11.07
2023-05-12T07:03:53.883Z,11.10
2023-05-12T07:05:58.146Z,11.15
2023-05-12T07:08:02.341Z,11.21
2023-05-12T07:10:07.955Z,11.28
2023-05-12T07:12:11.806Z,11.31
2023-05-12T07:14:15.907Z,11.33
2023-05-12T07:16:21.940Z,11.35
2023-05-12T07:18:26.054Z,11.37
2023-05-12T07:20:30.334Z,11.35
2023-05-12T07:22:34.778Z,11.37
2023-05-12T07:24:40.102Z,11.40
2023-05-12T07:26:45.229Z,11.42
2023-05-12T07:28:49.233Z,11.44
2023-05-12T07:30:53.324Z,11.50
2023-05-12T07:33:01.604Z,11.53
2023-05-12T07:35:06.694Z,11.56
2023-05-12T07:37:10.881Z,11.62
2023-05-12T07:39:19.502Z,11.66
2023-05-12T07:41:23.321Z,11.73
2023-05-12T07:43:27.226Z,11.78
2023-05-12T07:45:31.141Z,11.83
2023-05-12T07:47:34.871Z,11.85
2023-05-12T07:49:40.501Z,11.85
2023-05-12T07:51:44.364Z,11.84
2023-05-12T07:53:48.139Z,11.83
2023-05-12T07:55:52.008Z,11.79
2023-05-12T07:57:55.888Z,11.77
2023-05-12T08:00:00.474Z,11.75
2023-05-12T08:02:04.555Z,11.74
2023-05-12T08:04:08.723Z,11.73
2023-05-12T08:06:13.573Z,11.72
2023-05-12T08:08:17.749Z,11.73
2023-05-12T08:10:21.511Z,11.74
2023-05-12T08:12:25.498Z,11.76
2023-05-12T08:14:29.066Z,11.76
2023-05-12T08:16:32.930Z,11.76
2023-05-12T08:18:36.942Z,11.75
2023-05-12T08:20:40.784Z,11.75
2023-05-12T08:22:48.092Z,11.76
2023-05-12T08:24:52.993Z,11.77
2023-05-12T08:26:56.844Z,11.77
2023-05-12T08:29:00.878Z,11.78
2023-05-12T08:31:05.390Z,11.81
2023-05-12T08:33:09.549Z,11.87
2023-05-12T08:35:13.589Z,11.91
2023-05-12T08:37:17.354Z,11.93
2023-05-12T08:39:22.936Z,11.93
2023-05-12T08:41:43.599Z,11.90
2023-05-12T08:43:51.159Z,11.93
2023-05-12T08:45:58.504Z,11.99
2023-05-12T08:48:02.557Z,12.05
2023-05-12T08:50:07.166Z,12.07
2023-05-12T08:52:12.737Z,12.09
2023-05-12T08:54:20.821Z,12.11
2023-05-12T08:58:40.932Z,12.14
2023-05-12T09:00:46.473Z,12.15
2023-05-12T09:02:54.030Z,12.15
2023-05-12T09:04:58.772Z,12.17
2023-05-12T09:07:02.509Z,12.19
2023-05-12T09:09:06.336Z,12.20
2023-05-12T09:11:13.935Z,12.18
2023-05-12T09:13:25.390Z,12.19
2023-05-12T09:15:37.566Z,12.21
2023-05-12T09:17:41.650Z,12.17
2023-05-12T09:19:45.260Z,12.16
2023-05-12T09:21:48.988Z,12.17
2023-05-12T09:23:57.386Z,12.18
2023-05-12T09:26:02.496Z,12.15
2023-05-12T09:28:06.465Z,12.13
2023-05-12T09:30:12.823Z,12.08
2023-05-12T09:32:16.874Z,12.06
2023-05-12T09:34:21.155Z,11.98
2023-05-12T09:36:26.128Z,11.96
2023-05-12T09:38:29.488Z,11.97
2023-05-12T09:40:33.275Z,11.95
2023-05-12T09:42:37.652Z,11.90
2023-05-12T09:44:42.513Z,11.86
2023-05-12T09:46:48.036Z,11.91
2023-05-12T09:48:52.246Z,11.99
2023-05-12T09:50:55.976Z,12.09
2023-05-12T09:53:02.649Z,12.17
2023-05-12T09:55:10.963Z,12.18
2023-05-12T09:57:17.625Z,12.15
2023-05-12T09:59:27.043Z,12.15
2023-05-12T10:01:31.318Z,12.19
2023-05-12T10:03:38.184Z,12.14
2023-05-12T10:05:51.212Z,12.05
2023-05-12T10:08:01.842Z,12.09
2023-05-12T10:10:09.367Z,12.19
2023-05-12T10:12:15.384Z,12.24
2023-05-12T10:14:19.248Z,12.19
2023-05-12T10:16:23.596Z,12.24
2023-05-12T10:18:27.643Z,12.30
2023-05-12T10:20:33.473Z,12.30
2023-05-12T10:22:39.663Z,12.33
2023-05-12T10:24:43.704Z,12.28
2023-05-12T10:26:47.736Z,12.28
2023-05-12T10:28:53.125Z,12.24
2023-05-12T10:30:58.750Z,12.29
2023-05-12T10:33:03.335Z,12.33
2023-05-12T10:35:12.324Z,12.31
2023-05-12T10:37:18.385Z,12.21
2023-05-12T10:39:22.202Z,12.27
2023-05-12T10:41:32.732Z,12.29
2023-05-12T10:43:45.521Z,12.23
2023-05-12T10:45:50.135Z,12.29
2023-05-12T10:47:54.317Z,12.25
2023-05-12T10:49:59.886Z,12.35
2023-05-12T10:52:03.642Z,12.46
2023-05-12T10:54:11.670Z,12.49
2023-05-12T10:56:23.160Z,12.50
2023-05-12T10:58:27.466Z,12.41
2023-05-12T11:00:32.223Z,12.32
2023-05-12T11:02:38.602Z,12.24
2023-05-12T11:04:48.765Z,12.14
2023-05-12T11:07:01.407Z,12.01
2023-05-12T11:09:09.014Z,11.84
2023-05-12T11:11:13.888Z,11.78
2023-05-12T11:13:19.422Z,11.80
2023-05-12T11:15:24.190Z,11.81
2023-05-12T11:17:27.890Z,11.91
2023-05-12T11:19:32.358Z,11.87
2023-05-12T11:21:37.991Z,11.92
2023-05-12T11:23:42.071Z,12.03
2023-05-12T11:25:48.625Z,12.10
2023-05-12T11:27:54.100Z,12.14
2023-05-12T11:30:01.661Z,12.18
2023-05-12T11:32:06.668Z,12.23
2023-05-12T11:34:13.470Z,12.31
2023-05-12T11:36:21.712Z,12.45
2023-05-12T11:38:27.405Z,12.65
2023-05-12T11:40:31.316Z,12.71
2023-05-12T11:42:36.639Z,12.76
2023-05-12T11:44:48.507Z,12.91
2023-05-12T11:46:59.423Z,12.81
2023-05-12T11:49:04.261Z,12.87
2023-05-12T11:51:09.465Z,13.10
2023-05-12T11:53:15.946Z,13.25
2023-05-12T11:55:24.734Z,13.32
2023-05-12T11:57:29.428Z,13.42
2023-05-12T11:59:35.440Z,13.48
2023-05-12T12:01:47.158Z,13.41
2023-05-12T12:03:52.508Z,13.43
2023-05-12T12:06:01.391Z,13.51
2023-05-12T12:08:10.246Z,13.58
2023-05-12T12:10:14.643Z,13.66
2023-05-12T12:12:18.437Z,13.78
2023-05-12T12:14:22.108Z,13.86
2023-05-12T12:16:28.444Z,13.92
2023-05-12T12:18:32.713Z,14.01
2023-05-12T12:20:36.467Z,14.13
2023-05-12T12:22:40.642Z,14.12
2023-05-12T12:24:44.533Z,14.15
2023-05-12T12:26:49.563Z,14.14
2023-05-12T12:28:53.917Z,14.05
2023-05-12T12:30:57.567Z,13.92
2023-05-12T12:33:02.703Z,13.85
2023-05-12T12:35:07.049Z,13.75
2023-05-12T12:37:10.588Z,13.69
2023-05-12T12:39:14.751Z,13.73
2023-05-12T12:41:18.292Z,13.70
2023-05-12T12:43:22.165Z,13.76
2023-05-12T12:45:25.932Z,13.65
2023-05-12T12:47:29.518Z,13.56
2023-05-12T12:49:34.329Z,13.49
2023-05-12T12:51:45.502Z,13.52
2023-05-12T12:53:50.074Z,13.67
2023-05-12T12:55:54.066Z,13.82
2023-05-12T12:57:58.207Z,13.70
2023-05-12T13:00:01.768Z,13.42
2023-05-12T13:02:05.654Z,13.30
2023-05-12T13:04:09.461Z,13.38
2023-05-12T13:06:14.725Z,13.48
2023-05-12T13:08:18.576Z,13.48
2023-05-12T13:10:22.355Z,13.51
2023-05-12T13:12:26.161Z,13.61
2023-05-12T13:14:30.251Z,13.45
2023-05-12T13:16:34.114Z,13.39
2023-05-12T13:18:37.805Z,13.42
2023-05-12T13:20:42.073Z,13.32
2023-05-12T13:22:48.185Z,13.37
2023-05-12T13:24:52.159Z,13.35
2023-05-12T13:26:56.771Z,13.37
2023-05-12T13:29:00.979Z,13.46
2023-05-12T13:31:04.819Z,13.44
2023-05-12T13:33:09.156Z,13.53
2023-05-12T13:35:13.078Z,13.52
2023-05-12T13:37:16.978Z,13.61
2023-05-12T13:39:21.999Z,13.68
2023-05-12T13:41:25.917Z,13.65
2023-05-12T13:43:29.769Z,13.73
2023-05-12T13:45:34.080Z,13.76
2023-05-12T13:47:37.940Z,13.71
2023-05-12T13:49:42.060Z,13.66
2023-05-12T13:51:45.700Z,13.63
2023-05-12T13:53:49.687Z,13.62
2023-05-12T13:55:55.612Z,13.62
2023-05-12T13:57:59.450Z,13.65
2023-05-12T14:00:03.377Z,13.68
2023-05-12T14:02:09.984Z,13.62
2023-05-12T14:04:14.493Z,13.57
2023-05-12T14:06:18.353Z,13.45
2023-05-12T14:08:22.149Z,13.42
2023-05-12T14:10:25.846Z,13.37
2023-05-12T14:12:31.381Z,13.27
2023-05-12T14:14:35.227Z,13.29
2023-05-12T14:16:38.967Z,13.39
2023-05-12T14:18:43.680Z,13.50
2023-05-12T14:20:48.408Z,13.44
2023-05-12T14:22:52.578Z,13.36
2023-05-12T14:24:57.226Z,13.37
2023-05-12T14:27:01.268Z,13.32
2023-05-12T14:29:08.683Z,13.34
2023-05-12T14:31:12.754Z,13.34
2023-05-12T14:33:16.625Z,13.39
2023-05-12T14:35:20.448Z,13.39
2023-05-12T14:37:24.571Z,13.42
2023-05-12T14:39:28.381Z,13.36
2023-05-12T14:41:33.217Z,13.30
2023-05-12T14:43:37.631Z,13.26
2023-05-12T14:45:43.235Z,13.19
2023-05-12T14:47:47.316Z,13.22
2023-05-12T14:49:51.211Z,13.29
2023-05-12T14:51:55.891Z,13.31
2023-05-12T14:54:00.056Z,13.25
2023-05-12T14:56:03.723Z,13.21
2023-05-12T14:58:07.733Z,13.22
2023-05-12T15:00:13.730Z,13.17
2023-05-12T15:02:18.972Z,13.20
2023-05-12T15:04:22.868Z,13.21
2023-05-12T15:06:26.603Z,13.18
2023-05-12T15:08:30.438Z,13.20
2023-05-12T15:10:34.322Z,13.20
2023-05-12T15:12:38.482Z,13.16
2023-05-12T15:14:42.295Z,13.20
2023-05-12T15:16:46.364Z,13.24
2023-05-12T15:18:51.952Z,13.30
2023-05-12T15:20:55.609Z,13.33
2023-05-12T15:22:59.551Z,13.31
2023-05-12T15:25:04.894Z,13.24
2023-05-12T15:27:09.290Z,13.20
2023-05-12T15:29:13.322Z,13.23
2023-05-12T15:31:17.182Z,13.30
2023-05-12T15:33:21.095Z,13.37
2023-05-12T15:35:27.939Z,13.43
2023-05-12T15:37:31.691Z,13.47
2023-05-12T15:39:35.579Z,13.48
2023-05-12T15:41:39.406Z,13.56
2023-05-12T15:43:43.645Z,13.60
2023-05-12T15:45:47.512Z,13.61
2023-05-12T15:47:51.470Z,13.54
2023-05-12T15:49:55.224Z,13.49
2023-05-12T15:52:01.558Z,13.45
2023-05-12T15:54:07.124Z,13.41
2023-05-12T15:56:13.878Z,13.43
2023-05-12T15:58:17.551Z,13.46
2023-05-12T16:00:22.882Z,13.47
2023-05-12T16:02:28.002Z,13.44
2023-05-12T16:04:32.112Z,13.43
2023-05-12T16:06:37.008Z,13.47
2023-05-12T16:08:42.839Z,13.48
2023-05-12T16:10:47.051Z,13.57
2023-05-12T16:12:51.684Z,13.55
2023-05-12T16:14:55.318Z,13.52
2023-05-12T16:16:59.490Z,13.57
2023-05-12T16:19:03.745Z,13.62
2023-05-12T16:21:08.587Z,13.65
2023-05-12T16:23:12.204Z,13.64
2023-05-12T16:25:17.641Z,13.64
2023-05-12T16:27:21.316Z,13.54
2023-05-12T16:29:25.182Z,13.51
2023-05-12T16:31:29.162Z,13.53
2023-05-12T16:33:32.910Z,13.48
2023-05-12T16:35:36.495Z,13.51
2023-05-12T16:37:40.304Z,13.53
2023-05-12T16:39:44.331Z,13.53
2023-05-12T16:41:49.525Z,13.51
2023-05-12T16:43:54.661Z,13.46
2023-05-12T16:46:02.337Z,13.47
2023-05-12T16:48:06.741Z,13.47
2023-05-12T16:50:11.826Z,13.45
2023-05-12T16:52:15.831Z,13.45
2023-05-12T16:54:19.532Z,13.43
2023-05-12T16:56:23.207Z,13.41
2023-05-12T16:58:31.498Z,13.34
2023-05-12T17:00:35.127Z,13.32
2023-05-12T17:02:39.258Z,13.31
2023-05-12T17:04:43.239Z,13.31
2023-05-12T17:06:49.500Z,13.31
2023-05-12T17:08:53.104Z,13.31
2023-05-12T17:10:56.925Z,13.33
2023-05-12T17:13:00.708Z,13.33
2023-05-12T17:15:08.634Z,13.30
2023-05-12T17:17:12.553Z,13.25
2023-05-12T17:19:16.454Z,13.21
2023-05-12T17:21:20.283Z,13.21
2023-05-12T17:23:23.889Z,13.24
2023-05-12T17:25:29.691Z,13.25
2023-05-12T17:27:33.649Z,13.26
2023-05-12T17:29:37.191Z,13.25
2023-05-12T17:31:42.769Z,13.26
2023-05-12T17:33:47.136Z,13.30
2023-05-12T17:36:03.860Z,13.34
2023-05-12T17:38:15.989Z,13.34
2023-05-12T17:40:19.662Z,13.35
2023-05-12T17:42:24.775Z,13.33
2023-05-12T17:44:30.272Z,13.29
2023-05-12T17:46:34.084Z,13.25
2023-05-12T17:48:39.271Z,13.23
2023-05-12T17:50:43.454Z,13.28
2023-05-12T17:52:47.820Z,13.33
2023-05-12T17:54:56.398Z,13.37
2023-05-12T17:57:00.128Z,13.34
2023-05-12T17:59:04.010Z,13.32
2023-05-12T18:01:07.950Z,13.31
2023-05-12T18:03:11.860Z,13.31
2023-05-12T18:05:17.645Z,13.29
2023-05-12T18:07:22.493Z,13.30
2023-05-12T18:09:26.330Z,13.35
2023-05-12T18:11:30.448Z,13.42
2023-05-12T18:13:34.649Z,13.48
2023-05-12T18:15:39.802Z,13.53
2023-05-12T18:17:43.505Z,13.54
2023-05-12T18:19:47.995Z,13.48
2023-05-12T18:21:54.471Z,13.43
2023-05-12T18:23:58.145Z,13.43
2023-05-12T18:26:01.695Z,13.38
2023-05-12T18:28:07.190Z,13.36
2023-05-12T18:30:13.328Z,13.39
2023-05-12T18:32:17.235Z,13.38
2023-05-12T18:34:21.298Z,13.36
2023-05-12T18:36:26.015Z,13.34
2023-05-12T18:38:30.824Z,13.37
2023-05-12T18:40:34.885Z,13.43
2023-05-12T18:42:39.047Z,13.47
2023-05-12T18:44:42.670Z,13.53
2023-05-12T18:46:47.052Z,13.59
2023-05-12T18:48:51.790Z,13.58
2023-05-12T18:50:56.890Z,13.61
2023-05-12T18:53:00.742Z,13.64
2023-05-12T18:55:06.440Z,13.66
2023-05-12T18:57:10.286Z,13.69
2023-05-12T18:59:14.293Z,13.71
2023-05-12T19:01:18.544Z,13.75
2023-05-12T19:03:22.321Z,13.64
2023-05-12T19:05:26.324Z,13.62
2023-05-12T19:07:29.896Z,13.62
2023-05-12T19:09:34.874Z,13.70
2023-05-12T19:11:40.760Z,13.78
2023-05-12T19:13:46.378Z,13.76
2023-05-12T19:15:50.404Z,13.66
2023-05-12T19:17:54.361Z,13.53
2023-05-12T19:20:00.851Z,13.41
2023-05-12T19:22:05.368Z,13.25
2023-05-12T19:24:11.096Z,13.14
2023-05-12T19:26:14.846Z,12.98
2023-05-12T19:28:20.125Z,12.80
2023-05-12T19:30:25.733Z,12.69
2023-05-12T19:32:30.538Z,12.59
2023-05-12T19:34:34.721Z,12.52
2023-05-12T19:36:38.714Z,12.49
2023-05-12T19:38:45.320Z,12.45
2023-05-12T19:40:49.394Z,12.40
2023-05-12T19:42:53.434Z,12.35
2023-05-12T19:44:59.263Z,12.32
2023-05-12T19:47:04.991Z,12.31
2023-05-12T19:49:09.105Z,12.30
2023-05-12T19:51:13.135Z,12.29
2023-05-12T19:53:16.696Z,12.26
2023-05-12T19:55:20.603Z,12.25
2023-05-12T19:57:24.859Z,12.23
2023-05-12T19:59:29.104Z,12.17
2023-05-12T20:01:34.876Z,12.13
2023-05-12T20:03:38.931Z,12.10
2023-05-12T20:05:42.878Z,12.06
2023-05-12T20:07:49.019Z,12.05
2023-05-12T20:09:53.826Z,12.05
2023-05-12T20:11:57.942Z,12.03
2023-05-12T20:14:02.404Z,12.02
2023-05-12T20:16:06.675Z,12.01
2023-05-12T20:18:14.828Z,12.00
2023-05-12T20:20:19.215Z,11.97
2023-05-12T20:22:23.013Z,11.95
2023-05-12T20:24:27.499Z,11.91
2023-05-12T20:26:32.051Z,11.89
2023-05-12T20:28:36.567Z,11.83
2023-05-12T20:30:41.452Z,11.80
2023-05-12T20:32:45.305Z,11.78
2023-05-12T20:34:52.748Z,11.75
2023-05-12T20:36:57.963Z,11.72
2023-05-12T20:39:02.116Z,11.68
2023-05-12T20:41:06.538Z,11.66
2023-05-12T20:43:10.318Z,11.61
2023-05-12T20:45:14.432Z,11.58
2023-05-12T20:47:18.144Z,11.55
2023-05-12T20:49:22.157Z,11.50
2023-05-12T20:51:27.866Z,11.47
2023-05-12T20:53:31.364Z,11.42
2023-05-12T20:55:36.228Z,11.40
2023-05-12T20:57:41.465Z,11.35
2023-05-12T20:59:45.645Z,11.31
2023-05-12T21:01:49.953Z,11.28
2023-05-12T21:03:54.053Z,11.25
2023-05-12T21:05:58.066Z,11.22
2023-05-12T21:08:03.224Z,11.17
2023-05-12T21:10:07.565Z,11.14
2023-05-12T21:12:11.824Z,11.09
2023-05-12T21:14:16.145Z,11.07
2023-05-12T21:16:19.972Z,11.05
2023-05-12T21:18:23.694Z,11.04
2023-05-12T21:20:27.779Z,11.00
2023-05-12T21:22:31.652Z,10.98
2023-05-12T21:24:38.037Z,10.95
2023-05-12T21:26:42.351Z,10.93
2023-05-12T21:28:46.720Z,10.90
2023-05-12T21:30:56.541Z,10.88
2023-05-12T21:33:02.530Z,10.86
2023-05-12T21:35:09.836Z,10.84
2023-05-12T21:37:15.161Z,10.81
2023-05-12T21:39:19.516Z,10.79
2023-05-12T21:41:27.007Z,10.79
2023-05-12T21:43:31.570Z,10.76
2023-05-12T21:45:35.883Z,10.76
2023-05-12T21:47:40.903Z,10.75
2023-05-12T21:49:45.486Z,10.73
2023-05-12T21:51:49.308Z,10.71
2023-05-12T21:53:54.850Z,10.66
2023-05-12T21:55:58.520Z,10.63
2023-05-12T21:58:03.902Z,10.60
2023-05-12T22:00:12.232Z,10.58
2023-05-12T22:02:17.452Z,10.54
2023-05-12T22:04:21.334Z,10.53
2023-05-12T22:06:25.715Z,10.50
2023-05-12T22:08:29.549Z,10.50
2023-05-12T22:10:33.994Z,10.48
2023-05-12T22:12:37.898Z,10.46
2023-05-12T22:14:43.720Z,10.45
2023-05-12T22:16:48.406Z,10.41
2023-05-12T22:18:53.018Z,10.37
2023-05-12T22:20:57.892Z,10.35
2023-05-12T22:23:03.443Z,10.31
2023-05-12T22:25:10.613Z,10.27
2023-05-12T22:27:14.375Z,10.25
2023-05-12T22:29:17.924Z,10.24
2023-05-12T22:31:26.075Z,10.20
2023-05-12T22:33:29.853Z,10.17
2023-05-12T22:35:34.262Z,10.15
2023-05-12T22:37:38.628Z,10.11
2023-05-12T22:39:42.199Z,10.08
2023-05-12T22:41:45.750Z,10.06
2023-05-12T22:43:49.357Z,10.03
2023-05-12T22:45:53.161Z,10.00
2023-05-12T22:47:58.642Z,9.96
2023-05-12T22:50:02.913Z,9.94
2023-05-12T22:52:06.974Z,9.91
2023-05-12T22:54:11.712Z,9.90
2023-05-12T22:56:15.434Z,9.89
2023-05-12T22:58:18.947Z,9.86
2023-05-12T23:00:23.059Z,9.85
2023-05-12T23:02:27.135Z,9.86
2023-05-12T23:04:32.412Z,9.84
2023-05-12T23:06:36.551Z,9.83
2023-05-12T23:08:40.582Z,9.81
2023-05-12T23:10:44.770Z,9.79
2023-05-12T23:12:48.413Z,9.79
2023-05-12T23:14:51.996Z,9.79
2023-05-12T23:16:55.906Z,9.77
2023-05-12T23:18:59.691Z,9.76
2023-05-12T23:21:04.741Z,9.75
2023-05-12T23:23:08.460Z,9.75
2023-05-12T23:25:12.328Z,9.73
2023-05-12T23:27:16.114Z,9.72
2023-05-12T23:29:20.112Z,9.71
2023-05-12T23:31:24.152Z,9.70
2023-05-12T23:33:28.324Z,9.66
2023-05-12T23:35:31.946Z,9.62
2023-05-12T23:37:37.084Z,9.59
2023-05-12T23:39:40.697Z,9.59
2023-05-12T23:41:45.814Z,9.58
2023-05-12T23:43:49.402Z,9.58
2023-05-12T23:45:53.017Z,9.58
2023-05-12T23:47:56.832Z,9.58
2023-05-12T23:50:00.503Z,9.57
2023-05-12T23:52:04.488Z,9.56
2023-05-12T23:54:10.121Z,9.56
2023-05-12T23:56:13.759Z,9.56
2023-05-12T23:58:17.402Z,9.54
